Minot International Airport
KMOT : rendu visible

Aérodrome :











RETROUVEZ-NOUS SUR...

 
LOGIN :

S'inscrire | Disclaimer

   EN    FR    IT 

 









Légende :    VFR   VFR Marginal   IFR   IFR Intensif   IFR Très Intensif
Visi : 
Plafond : 
>= 8 km
>= 3000ft
5 à 8 km
1000 à 3000 ft
1500m à 5 km
500 à 1000 ft
800 à 1500m
200 à 500 ft
< 800m
< 200 ft
Symboles :   Orages  Brouillard  Fortes neiges  Fortes précipitations  Vent > 20 kt






- Altitude de l'aérodrome : 1716 ft
- Code IATA : MOT


KMOT - Minot International

DERNIER METAR :
  • 150754Z AUTO 11006KT 4SM BR OVC004 01/M01 A3013 RMK AO2 SLP218 T00061006

METARs EXPIRÉS :
  • 150654Z AUTO 09003KT 6SM BR OVC005 01/M01 A3014 RMK AO2 SLP223 T00061006
  • 150620Z AUTO 00000KT 5SM BR OVC004 01/M01 A3014 RMK AO2 T00061006
  • 150602Z AUTO 00000KT 6SM BR OVC005 01/M01 A3014 RMK AO2 T00061006
  • 150554Z AUTO 00000KT 6SM BR OVC004 01/M01 A3014 RMK AO2 SLP224 T00061006 10006 21028 400891072 50002

TAF KMOT
Valide du 15 à 06h jusqu'au 16 à 06h UTC


150530Z 1506/1606 VRB03KT 6SM BR OVC005
FM151200 VRB03KT 5SM BR OVC003
FM151800 14009KT P6SM OVC005
FM160400 18012G20KT P6SM OVC011



MET'MAP, la Météo Aéronautique d'un coup d'oeil ! - Copyright ORBIFLY Décembre 2007 - Disclaimer

ORBIFLY MET'MAP TEAM :

Programmation & Développement : Alexandra Zaïnal
Conception & Développement : Baudouin d'Aumeries
Co-Programmation & Développement : Marc-Olivier Méhu
Soutien technique & logistique : Manuel Goepfert

Contact : metmap@orbifly.com




SOURCES & CREDITS :

   NOAA       Earth
Advisory